createdAt,value
2017-01-25T00:00:55.385Z,99.99
2017-01-25T00:05:51.586Z,99.99
2017-01-25T00:10:47.821Z,99.99
2017-01-25T00:15:44.272Z,99.99
2017-01-25T00:20:40.128Z,99.99
2017-01-25T00:25:36.592Z,99.99
2017-01-25T00:30:32.835Z,99.99
2017-01-25T00:35:29.029Z,99.99
2017-01-25T00:40:25.280Z,99.99
2017-01-25T00:45:21.728Z,99.99
2017-01-25T00:50:17.875Z,99.99
2017-01-25T00:55:14.162Z,99.99
2017-01-25T01:00:10.563Z,99.99
2017-01-25T01:05:06.713Z,99.99
2017-01-25T01:10:03.686Z,99.99
2017-01-25T01:14:59.984Z,99.99
2017-01-25T01:19:57.074Z,99.99
2017-01-25T01:24:54.021Z,99.99
2017-01-25T01:29:50.342Z,99.99
2017-01-25T01:34:46.367Z,99.99
2017-01-25T01:39:42.799Z,99.99
2017-01-25T01:44:40.007Z,99.99
2017-01-25T01:49:36.117Z,99.99
2017-01-25T01:54:32.498Z,99.99
2017-01-25T01:59:28.961Z,99.99
2017-01-25T02:04:25.236Z,99.99
2017-01-25T02:09:21.656Z,99.99
2017-01-25T02:14:17.933Z,99.99
2017-01-25T02:19:14.110Z,99.99
2017-01-25T02:24:09.904Z,99.99
2017-01-25T02:29:06.492Z,99.99
2017-01-25T02:34:03.536Z,99.99
2017-01-25T02:39:00.460Z,99.99
2017-01-25T02:43:56.811Z,99.99
2017-01-25T02:48:53.530Z,99.99
2017-01-25T02:53:49.863Z,99.99
2017-01-25T02:58:46.209Z,99.99
2017-01-25T03:03:42.492Z,99.99
2017-01-25T03:08:38.685Z,99.99
2017-01-25T03:13:35.028Z,99.99
2017-01-25T03:18:32.232Z,99.99
2017-01-25T03:23:28.371Z,99.99
2017-01-25T03:28:24.527Z,99.99
2017-01-25T03:33:20.879Z,99.99
2017-01-25T03:38:17.663Z,99.99
2017-01-25T03:43:14.041Z,99.99
2017-01-25T03:48:10.361Z,99.99
2017-01-25T03:53:06.515Z,99.99
2017-01-25T03:58:02.820Z,99.99
2017-01-25T04:02:59.168Z,99.99
2017-01-25T04:07:55.619Z,99.99
2017-01-25T04:12:51.949Z,99.99
2017-01-25T04:17:48.537Z,99.99
2017-01-25T04:22:44.663Z,99.99
2017-01-25T04:27:41.029Z,99.99
2017-01-25T04:32:37.495Z,99.99
2017-01-25T04:37:33.851Z,99.99
2017-01-25T04:42:30.205Z,99.99
2017-01-25T04:47:26.308Z,99.99
2017-01-25T04:52:22.566Z,99.99
2017-01-25T04:57:19.967Z,99.99
2017-01-25T05:02:15.841Z,99.99
2017-01-25T05:07:12.138Z,99.99
2017-01-25T05:12:08.870Z,99.99
2017-01-25T05:17:05.962Z,99.99
2017-01-25T05:22:02.131Z,99.99
2017-01-25T05:26:58.582Z,99.99
2017-01-25T05:31:55.108Z,99.99
2017-01-25T05:36:51.439Z,99.99
2017-01-25T05:41:47.832Z,99.99
2017-01-25T05:46:44.338Z,99.99
2017-01-25T05:51:40.487Z,99.99
2017-01-25T05:56:36.648Z,99.99
2017-01-25T06:01:32.978Z,99.99
2017-01-25T06:06:29.198Z,99.99
2017-01-25T06:11:25.606Z,99.99
2017-01-25T06:16:21.671Z,99.99
2017-01-25T06:21:18.025Z,99.99
2017-01-25T06:26:14.268Z,99.99
2017-01-25T06:31:11.449Z,99.99
2017-01-25T06:36:07.774Z,99.99
2017-01-25T06:41:03.996Z,99.99
2017-01-25T06:46:00.100Z,99.99
2017-01-25T06:50:56.344Z,99.99
2017-01-25T06:55:52.691Z,99.99
2017-01-25T07:00:48.805Z,99.99
2017-01-25T07:05:45.029Z,99.99
2017-01-25T07:10:41.342Z,99.99
2017-01-25T07:15:37.568Z,99.99
2017-01-25T07:20:34.587Z,99.99
2017-01-25T07:25:30.753Z,99.99
2017-01-25T07:30:27.151Z,99.99
2017-01-25T07:35:23.856Z,99.99
2017-01-25T07:40:19.829Z,99.99
2017-01-25T07:45:16.364Z,99.99
2017-01-25T07:50:13.428Z,99.99
2017-01-25T07:55:09.898Z,99.99
2017-01-25T08:00:06.246Z,99.99
2017-01-25T08:05:02.445Z,99.99
2017-01-25T08:09:58.712Z,99.99
2017-01-25T08:14:54.937Z,99.99
2017-01-25T08:19:51.196Z,99.99
2017-01-25T08:24:47.589Z,99.99
2017-01-25T08:29:43.841Z,99.99
2017-01-25T08:34:41.622Z,99.99
2017-01-25T08:39:37.801Z,99.99
2017-01-25T08:44:33.546Z,99.99
2017-01-25T08:49:30.774Z,99.99
2017-01-25T08:54:26.858Z,99.99
2017-01-25T08:59:23.252Z,99.99
2017-01-25T09:04:19.410Z,99.99
2017-01-25T09:09:15.547Z,99.99
2017-01-25T09:14:12.103Z,99.99
2017-01-25T09:19:09.102Z,99.99
2017-01-25T09:24:06.097Z,99.99
2017-01-25T09:29:02.645Z,99.99
2017-01-25T09:33:59.203Z,99.99
2017-01-25T09:38:56.402Z,99.99
2017-01-25T09:43:53.905Z,99.99
2017-01-25T09:48:50.067Z,99.99
2017-01-25T09:53:46.313Z,99.99
2017-01-25T09:58:42.899Z,99.99
2017-01-25T10:03:39.309Z,99.99
2017-01-25T10:08:35.947Z,99.99
2017-01-25T10:13:32.428Z,99.99
2017-01-25T10:18:30.011Z,99.99
2017-01-25T10:23:26.299Z,99.99
2017-01-25T10:28:23.561Z,99.99
2017-01-25T10:33:19.927Z,99.65
2017-01-25T10:38:16.225Z,98.95
2017-01-25T10:43:12.749Z,98.28
2017-01-25T10:48:09.184Z,97.53
2017-01-25T10:53:06.210Z,98.38
2017-01-25T10:58:02.724Z,97.63
2017-01-25T11:02:59.196Z,98.47
2017-01-25T11:07:55.684Z,97.53
2017-01-25T11:12:52.897Z,96.87
2017-01-25T11:17:49.257Z,97.72
2017-01-25T11:22:45.497Z,97.30
2017-01-25T11:27:41.944Z,96.54
2017-01-25T11:32:38.177Z,97.86
2017-01-25T11:37:34.437Z,97.58
2017-01-25T11:42:30.693Z,96.73
2017-01-25T11:47:27.485Z,96.73
2017-01-25T11:52:23.966Z,97.96
2017-01-25T11:57:20.571Z,97.67
2017-01-25T12:02:16.967Z,95.88
2017-01-25T12:07:13.283Z,96.35
2017-01-25T12:12:09.605Z,95.78
2017-01-25T12:17:05.664Z,96.45
2017-01-25T12:22:02.118Z,94.79
2017-01-25T12:26:58.670Z,94.60
2017-01-25T12:31:55.194Z,94.04
2017-01-25T12:36:51.698Z,92.52
2017-01-25T12:41:48.351Z,91.39
2017-01-25T12:46:45.044Z,91.77
2017-01-25T12:51:41.359Z,91.96
2017-01-25T12:56:37.628Z,91.96
2017-01-25T13:01:33.950Z,92.47
2017-01-25T13:06:30.437Z,92.47
2017-01-25T13:11:26.726Z,93.23
2017-01-25T13:16:23.055Z,92.24
2017-01-25T13:21:19.347Z,92.05
2017-01-25T13:26:16.506Z,91.81
2017-01-25T13:31:12.656Z,91.91
2017-01-25T13:36:08.803Z,92.38
2017-01-25T13:41:05.833Z,91.62
2017-01-25T13:46:02.859Z,91.24
2017-01-25T13:50:59.191Z,90.86
2017-01-25T13:55:55.781Z,90.30
2017-01-25T14:00:51.986Z,89.83
2017-01-25T14:05:48.522Z,90.30
2017-01-25T14:10:44.943Z,89.92
2017-01-25T14:15:41.210Z,90.20
2017-01-25T14:20:37.543Z,89.54
2017-01-25T14:25:33.923Z,90.39
2017-01-25T14:30:30.261Z,90.77
2017-01-25T14:35:26.733Z,90.39
2017-01-25T14:40:23.093Z,90.30
2017-01-25T14:45:19.886Z,91.15
2017-01-25T14:50:17.207Z,92.47
2017-01-25T14:55:13.113Z,92.57
2017-01-25T15:00:09.633Z,92.38
2017-01-25T15:05:05.972Z,93.51
2017-01-25T15:10:02.303Z,93.37
2017-01-25T15:14:58.532Z,93.51
2017-01-25T15:19:54.914Z,93.37
2017-01-25T15:24:51.170Z,94.22
2017-01-25T15:29:47.587Z,94.03
2017-01-25T15:34:44.526Z,94.22
2017-01-25T15:39:40.536Z,94.98
2017-01-25T15:44:37.452Z,94.41
2017-01-25T15:49:33.405Z,94.89
2017-01-25T15:54:29.555Z,95.54
2017-01-25T15:59:25.781Z,94.51
2017-01-25T16:04:23.244Z,95.83
2017-01-25T16:09:19.964Z,95.45
2017-01-25T16:14:16.315Z,95.45
2017-01-25T16:19:12.441Z,96.11
2017-01-25T16:24:08.561Z,96.21
2017-01-25T16:29:04.714Z,96.87
2017-01-25T16:34:01.022Z,96.73
2017-01-25T16:38:57.275Z,97.10
2017-01-25T16:43:53.463Z,96.54
2017-01-25T16:48:50.098Z,97.20
2017-01-25T16:53:46.516Z,97.96
2017-01-25T16:58:42.676Z,98.71
2017-01-25T17:03:39.122Z,98.05
2017-01-25T17:08:36.289Z,98.61
2017-01-25T17:13:32.733Z,98.14
2017-01-25T17:18:29.003Z,98.43
2017-01-25T17:23:25.812Z,97.96
2017-01-25T17:28:22.212Z,98.71
2017-01-25T17:33:18.213Z,98.05
2017-01-25T17:38:14.449Z,97.86
2017-01-25T17:43:10.672Z,97.67
2017-01-25T17:48:06.799Z,98.33
2017-01-25T17:53:03.365Z,99.08
2017-01-25T17:57:59.636Z,99.18
2017-01-25T18:02:55.603Z,99.75
2017-01-25T18:07:51.752Z,99.41
2017-01-25T18:12:47.844Z,99.79
2017-01-25T18:17:44.321Z,99.99
2017-01-25T18:22:40.647Z,99.94
2017-01-25T18:27:37.059Z,99.99
2017-01-25T18:32:33.559Z,99.99
2017-01-25T18:37:29.775Z,99.99
2017-01-25T18:42:27.398Z,99.99
2017-01-25T18:47:23.439Z,99.99
2017-01-25T18:52:19.614Z,99.99
2017-01-25T18:57:16.602Z,99.99
2017-01-25T19:02:12.754Z,99.99
2017-01-25T19:07:09.716Z,99.99
2017-01-25T19:12:06.736Z,99.99
2017-01-25T19:17:02.797Z,99.99
2017-01-25T19:21:59.199Z,99.99
2017-01-25T19:26:55.606Z,99.99
2017-01-25T19:31:52.023Z,99.99
2017-01-25T19:36:48.544Z,99.99
2017-01-25T19:41:44.534Z,99.99
2017-01-25T19:46:41.191Z,99.99
2017-01-25T19:51:37.471Z,99.99
2017-01-25T20:01:35.460Z,99.99
2017-01-25T20:06:31.726Z,99.99
2017-01-25T20:11:32.008Z,99.99
2017-01-25T20:16:27.405Z,99.99
2017-01-25T20:21:23.669Z,99.99
2017-01-25T20:26:20.158Z,99.99
2017-01-25T20:31:16.930Z,99.99
2017-01-25T20:36:13.292Z,99.99
2017-01-25T20:41:09.443Z,99.99
2017-01-25T20:46:06.484Z,99.99
2017-01-25T20:51:02.867Z,99.99
2017-01-25T20:55:59.178Z,99.99
2017-01-25T21:00:56.188Z,99.99
2017-01-25T21:05:52.404Z,99.99
2017-01-25T21:10:48.837Z,99.99
2017-01-25T21:15:45.486Z,99.99
2017-01-25T21:20:41.683Z,99.99
2017-01-25T21:25:37.828Z,99.99
2017-01-25T21:30:34.867Z,99.99
2017-01-25T21:35:31.142Z,99.99
2017-01-25T21:40:27.605Z,99.99
2017-01-25T21:45:23.597Z,99.99
2017-01-25T21:50:20.976Z,99.99
2017-01-25T21:55:16.877Z,99.99
2017-01-25T22:00:13.257Z,99.99
2017-01-25T22:05:10.442Z,99.99
2017-01-25T22:10:07.497Z,99.99
2017-01-25T22:15:03.772Z,99.99
2017-01-25T22:20:00.853Z,99.99
2017-01-25T22:24:57.148Z,99.99
2017-01-25T22:29:54.206Z,99.99
2017-01-25T22:34:51.383Z,99.99
2017-01-25T22:39:47.986Z,99.99
2017-01-25T22:44:45.194Z,99.99
2017-01-25T22:49:41.347Z,99.99
2017-01-25T22:54:37.896Z,99.99
2017-01-25T22:59:34.226Z,99.99
2017-01-25T23:04:31.460Z,99.99
2017-01-25T23:09:27.877Z,99.99
2017-01-25T23:14:24.378Z,99.99
2017-01-25T23:19:20.912Z,99.99
2017-01-25T23:24:17.399Z,98.99
2017-01-25T23:29:13.651Z,99.37
2017-01-25T23:34:11.952Z,99.56
2017-01-25T23:39:08.139Z,99.08
2017-01-25T23:44:04.211Z,99.99
2017-01-25T23:49:01.345Z,99.99
2017-01-25T23:53:57.843Z,99.99
2017-01-25T23:58:53.939Z,99.99
